.
WxDataArchive / Data Records for 2014-09-26
2014-09-25 September 2014 2014-09-27

Data Records for Friday, 26 September 2014

Time	Temp	Chill	HIndex	Humid	Dewpt	 Wind 	HiWind	WindDir	Rain 	Barom
-----	----	-----	------	-----	-----	------	------	-------	-----	-----
00:00	56.7	56.7	56.7	81	50.9	0	0	---	0.00	30.232 
00:05	56.6	56.6	56.6	82	51.2	0	0	---	0.00	30.232 
00:10	56.5	56.5	56.5	82	51.1	0	0	---	0.00	30.232 
00:15	56.3	56.3	56.3	83	51.2	0	0	---	0.00	30.230 
00:20	56.2	56.2	56.2	83	51.1	0	0	---	0.00	30.230 
00:25	56.0	56.0	56.0	83	50.9	0	0	---	0.00	30.230 
00:30	55.9	55.9	55.9	84	51.1	0	0	---	0.00	30.230 
00:35	55.9	55.9	55.9	84	51.1	0	0	---	0.00	30.230 
00:40	55.7	55.7	55.7	85	51.3	0	0	---	0.00	30.230 
00:45	55.7	55.7	55.7	85	51.3	0	0	---	0.00	30.228 
00:50	55.6	55.6	55.6	85	51.2	0	0	---	0.00	30.228 
00:55	55.6	55.6	55.6	85	51.2	0	0	---	0.00	30.228 
01:00	55.4	55.4	55.4	86	51.3	0	0	---	0.00	30.228 
01:05	55.3	55.3	55.3	86	51.2	0	0	---	0.00	30.228 
01:10	55.1	55.1	55.1	86	51.0	0	0	---	0.00	30.228 
01:15	55.1	55.1	55.1	86	51.0	0	0	---	0.00	30.226 
01:20	55.0	55.0	55.0	87	51.2	0	0	---	0.00	30.226 
01:25	55.0	55.0	55.0	87	51.2	0	0	---	0.00	30.226 
01:30	55.1	55.1	55.1	88	51.6	0	0	---	0.00	30.222 
01:35	55.3	55.3	55.3	88	51.8	0	0	---	0.00	30.222 
01:40	55.4	55.4	55.4	88	51.9	0	1	112	0.00	30.222 
01:45	55.4	55.4	55.4	88	51.9	0	0	---	0.00	30.226 
01:50	55.6	55.6	55.6	89	52.4	0	0	---	0.00	30.226 
01:55	55.4	55.4	55.4	88	51.9	0	0	---	0.00	30.226 
02:00	55.4	55.4	55.4	88	51.9	0	0	---	0.00	30.229 
02:05	55.3	55.3	55.3	89	52.1	0	0	---	0.00	30.229 
02:10	55.1	55.1	55.1	89	51.9	0	0	---	0.00	30.229 
02:15	55.3	55.3	55.3	90	52.4	0	0	---	0.00	30.230 
02:20	55.4	55.4	55.4	90	52.5	0	1	112	0.00	30.230 
02:25	55.4	55.4	55.4	90	52.5	0	1	112	0.00	30.230 
02:30	55.6	55.6	55.6	91	53.0	0	0	---	0.00	30.227 
02:35	55.4	55.4	55.4	91	52.8	0	0	---	0.00	30.227 
02:40	55.4	55.4	55.4	91	52.8	0	0	---	0.00	30.227 
02:45	55.6	55.6	55.6	91	53.0	0	0	---	0.00	30.221 
02:50	55.6	55.6	55.6	91	53.0	0	0	---	0.00	30.221 
02:55	55.4	55.4	55.4	92	53.1	0	0	---	0.00	30.221 
03:00	55.4	55.4	55.4	92	53.1	0	1	112	0.00	30.219 
03:05	55.3	55.3	55.3	92	53.0	0	0	---	0.00	30.219 
03:10	55.4	55.4	55.4	92	53.1	0	1	112	0.00	30.219 
03:15	55.4	55.4	55.4	92	53.1	0	0	---	0.00	30.215 
03:20	55.4	55.4	55.4	92	53.1	0	0	---	0.00	30.215 
03:25	55.6	55.6	55.6	92	53.3	0	0	---	0.00	30.215 
03:30	55.6	55.6	55.6	93	53.6	0	1	112	0.00	30.215 
03:35	55.6	55.6	55.6	93	53.6	0	0	---	0.00	30.215 
03:40	55.4	55.4	55.4	93	53.4	0	0	---	0.00	30.215 
03:45	55.4	55.4	55.4	93	53.4	0	0	---	0.00	30.219 
03:50	55.3	55.3	55.3	93	53.3	0	0	---	0.00	30.219 
03:55	55.1	55.1	55.1	93	53.1	0	1	112	0.00	30.219 
04:00	55.0	55.0	55.0	93	53.0	0	0	---	0.00	30.215 
04:05	54.8	54.8	54.8	93	52.8	0	0	---	0.00	30.215 
04:10	54.7	54.7	54.7	93	52.7	0	0	---	0.00	30.215 
04:15	54.7	54.7	54.7	93	52.7	0	0	---	0.00	30.217 
04:20	54.7	54.7	54.7	93	52.7	0	0	---	0.00	30.217 
04:25	54.7	54.7	54.7	94	53.0	0	0	---	0.00	30.217 
04:30	54.7	54.7	54.7	94	53.0	0	0	---	0.00	30.214 
04:35	54.8	54.8	54.8	94	53.1	0	0	---	0.00	30.214 
04:40	55.0	55.0	55.0	94	53.3	0	0	---	0.00	30.214 
04:45	54.8	54.8	54.8	94	53.1	0	0	---	0.00	30.215 
04:50	54.7	54.7	54.7	94	53.0	0	0	---	0.00	30.215 
04:55	54.5	54.5	54.5	94	52.8	0	0	---	0.00	30.215 
05:00	54.5	54.5	54.5	94	52.8	0	1	112	0.00	30.217 
05:05	54.7	54.7	54.7	94	53.0	0	1	112	0.00	30.217 
05:10	54.7	54.7	54.7	94	53.0	0	1	112	0.00	30.217 
05:15	54.5	54.5	54.5	94	52.8	0	2	112	0.00	30.220 
05:20	54.4	54.4	54.4	95	53.0	0	1	112	0.00	30.220 
05:25	54.4	54.4	54.4	95	53.0	0	0	---	0.00	30.220 
05:30	54.2	54.2	54.2	95	52.8	0	2	112	0.00	30.219 
05:35	54.2	54.2	54.2	95	52.8	0	1	112	0.00	30.219 
05:40	54.1	54.1	54.1	95	52.7	0	1	112	0.00	30.219 
05:45	54.1	54.1	54.1	95	52.7	0	4	112	0.00	30.223 
05:50	53.9	53.9	53.9	95	52.5	0	3	112	0.00	30.223 
05:55	53.9	53.9	53.9	95	52.5	0	4	112	0.00	30.223 
06:00	53.8	53.8	53.8	95	52.4	0	0	---	0.00	30.223 
06:05	53.8	53.8	53.8	95	52.4	0	2	112	0.00	30.223 
06:10	53.8	53.8	53.8	96	52.7	0	1	112	0.00	30.223 
06:15	53.8	53.8	53.8	96	52.7	0	1	112	0.00	30.227 
06:20	53.8	53.8	53.8	96	52.7	0	1	112	0.00	30.227 
06:25	53.6	53.6	53.6	96	52.5	0	2	112	0.00	30.227 
06:30	53.6	53.6	53.6	96	52.5	0	1	112	0.00	30.230 
06:35	53.5	53.5	53.5	96	52.4	0	2	112	0.00	30.230 
06:40	53.5	53.5	53.5	96	52.4	0	2	112	0.00	30.230 
06:45	53.3	53.3	53.3	96	52.2	0	1	112	0.00	30.234 
06:50	53.3	53.3	53.3	96	52.2	0	3	112	0.00	30.234 
06:55	53.3	53.3	53.3	96	52.2	0	1	112	0.00	30.234 
07:00	53.2	53.2	53.2	96	52.1	0	1	112	0.00	30.234 
07:05	53.2	53.2	53.2	96	52.1	0	1	112	0.00	30.234 
07:10	53.2	53.2	53.2	96	52.1	0	0	---	0.00	30.234 
07:15	53.2	53.2	53.2	96	52.1	0	1	112	0.00	30.242 
07:20	53.2	53.2	53.2	96	52.1	0	1	112	0.00	30.242 
07:25	52.9	52.9	52.9	96	51.8	0	1	112	0.00	30.242 
07:30	52.9	52.9	52.9	96	51.8	0	1	112	0.00	30.243 
07:35	52.9	52.9	52.9	96	51.8	0	1	112	0.00	30.243 
07:40	52.8	52.8	52.8	96	51.7	0	1	112	0.00	30.243 
07:45	52.8	52.8	52.8	96	51.7	0	1	112	0.00	30.244 
07:50	52.9	52.9	52.9	96	51.8	0	0	---	0.00	30.244 
07:55	52.9	52.9	52.9	96	51.8	0	1	112	0.00	30.244 
08:00	52.9	52.9	52.9	96	51.8	0	0	---	0.00	30.246 
08:05	52.8	52.8	52.8	96	51.7	0	1	112	0.00	30.246 
08:10	52.8	52.8	52.8	96	51.7	0	3	112	0.00	30.246 
08:15	52.6	52.6	52.6	96	51.5	0	1	112	0.00	30.250 
08:20	52.6	52.6	52.6	96	51.5	0	0	---	0.00	30.250 
08:25	52.5	52.5	52.5	96	51.4	0	3	112	0.00	30.250 
08:30	52.5	52.5	52.5	96	51.4	0	1	112	0.00	30.254 
08:35	52.6	52.6	52.6	96	51.5	0	1	112	0.00	30.254 
08:40	52.6	52.6	52.6	96	51.5	0	1	112	0.00	30.254 
08:45	52.9	52.9	52.9	96	51.8	0	0	---	0.00	30.256 
08:50	52.9	52.9	52.9	96	51.8	0	1	112	0.00	30.256 
08:55	53.1	53.1	53.1	96	52.0	0	1	112	0.00	30.256 
09:00	53.1	53.1	53.1	96	52.0	0	2	112	0.00	30.260 
09:05	53.2	53.2	53.2	96	52.1	0	1	112	0.00	30.260 
09:10	53.5	53.5	53.5	97	52.7	0	1	112	0.00	30.260 
09:15	53.5	53.5	53.5	96	52.4	0	1	112	0.00	30.272 
09:20	53.5	53.5	53.5	97	52.7	0	1	112	0.00	30.272 
09:25	53.6	53.6	53.6	97	52.8	0	1	112	0.00	30.272 
09:30	53.9	53.9	53.9	97	53.1	0	1	112	0.00	30.271 
09:35	54.2	54.2	54.2	97	53.4	0	1	112	0.00	30.271 
09:40	54.5	54.5	54.5	97	53.7	0	1	112	0.00	30.271 
09:45	54.7	54.7	54.7	97	53.9	0	1	112	0.00	30.274 
09:50	54.5	54.5	54.5	97	53.7	0	1	112	0.00	30.274 
09:55	54.7	54.7	54.7	97	53.9	0	1	112	0.00	30.274 
10:00	55.0	55.0	55.0	97	54.2	0	1	112	0.00	30.275 
10:05	55.1	55.1	55.1	97	54.3	0	3	112	0.00	30.275 
10:10	55.3	55.3	55.3	97	54.5	0	1	112	0.00	30.275 
10:15	55.3	55.3	55.3	97	54.5	0	2	112	0.00	30.277 
10:20	55.6	55.6	55.6	97	54.8	0	2	112	0.00	30.277 
10:25	55.9	55.9	55.9	97	55.1	1	3	112	0.00	30.277 
10:30	55.9	55.9	55.9	97	55.1	0	2	112	0.00	30.277 
10:35	56.5	56.5	56.5	97	55.7	0	1	112	0.00	30.277 
10:40	57.5	57.5	57.5	97	56.7	0	1	112	0.00	30.277 
10:45	58.0	58.0	58.0	97	57.2	0	2	112	0.00	30.276 
10:50	58.1	58.1	58.1	97	57.3	1	3	112	0.00	30.276 
10:55	58.4	58.4	58.4	96	57.3	1	3	112	0.00	30.276 
11:00	58.7	58.7	58.7	96	57.6	1	4	112	0.00	30.276 
11:05	59.3	59.3	59.3	96	58.2	1	3	112	0.00	30.276 
11:10	60.1	60.1	60.1	94	58.4	1	3	112	0.00	30.276 
11:15	60.7	60.7	60.7	93	58.7	1	3	112	0.00	30.275 
11:20	61.2	61.2	61.2	90	58.2	1	3	112	0.00	30.275 
11:25	61.8	61.8	61.8	89	58.5	0	2	112	0.00	30.275 
11:30	62.9	62.9	62.9	86	58.6	0	2	112	0.00	30.273 
11:35	63.5	63.5	63.5	83	58.2	0	3	112	0.00	30.273 
11:40	64.2	64.2	64.2	81	58.2	1	3	112	0.00	30.273 
11:45	65.0	65.0	65.0	79	58.3	0	2	112	0.00	30.271 
11:50	65.6	65.6	65.6	77	58.2	1	3	112	0.00	30.271 
11:55	66.4	66.4	66.4	76	58.6	0	2	112	0.00	30.271 
12:00	67.3	67.3	67.3	75	59.1	0	2	112	0.00	30.268 
12:05	68.1	68.1	68.1	70	57.9	0	3	112	0.00	30.268 
12:10	68.6	68.6	68.6	70	58.4	0	2	112	0.00	30.268 
12:15	69.4	69.4	69.4	67	58.0	0	2	112	0.00	30.268 
12:20	70.3	70.3	70.3	64	57.5	0	2	112	0.00	30.268 
12:25	70.8	70.8	70.8	61	56.7	1	3	112	0.00	30.268 
12:30	70.9	70.9	70.9	61	56.8	1	3	112	0.00	30.267 
12:35	71.3	71.3	71.3	61	57.1	0	2	112	0.00	30.267 
12:40	71.6	71.6	71.6	57	55.5	0	2	112	0.00	30.267 
12:45	72.0	72.0	72.0	56	55.4	1	3	112	0.00	30.266 
12:50	72.5	72.5	72.5	55	55.4	1	3	90	0.00	30.266 
12:55	73.0	73.0	73.0	57	56.9	0	3	90	0.00	30.266 
13:00	73.5	73.5	73.5	55	56.3	1	2	90	0.00	30.263 
13:05	73.7	73.7	73.7	52	55.0	1	3	90	0.00	30.263 
13:10	73.9	73.9	73.9	55	56.7	0	2	90	0.00	30.263 
13:15	74.0	74.0	74.0	53	55.8	1	4	90	0.00	30.263 
13:20	74.2	74.2	74.2	56	57.5	0	1	90	0.00	30.263 
13:25	74.4	74.4	74.4	53	56.1	1	3	90	0.00	30.263 
13:30	74.6	74.6	74.6	53	56.3	1	3	112	0.00	30.261 
13:35	74.7	74.7	74.7	52	55.9	1	4	112	0.00	30.261 
13:40	74.7	74.7	74.7	55	57.4	1	5	112	0.00	30.261 
13:45	74.7	74.7	74.7	54	56.9	1	3	112	0.00	30.255 
13:50	74.9	74.9	74.9	53	56.6	1	3	112	0.00	30.255 
13:55	75.1	75.1	77.6	53	56.8	1	4	90	0.00	30.255 
14:00	75.1	75.1	77.6	54	57.3	1	4	90	0.00	30.247 
14:05	75.3	75.3	77.7	56	58.5	0	2	90	0.00	30.247 
14:10	75.4	75.4	77.8	51	56.0	1	3	90	0.00	30.247 
14:15	75.4	75.4	77.8	52	56.5	1	4	90	0.00	30.243 
14:20	75.8	75.8	78.0	51	56.4	0	1	90	0.00	30.243 
14:25	75.8	75.8	78.0	48	54.7	0	4	90	0.00	30.243 
14:30	75.8	75.8	78.0	48	54.7	1	3	90	0.00	30.237 
14:35	76.0	76.0	78.1	50	56.0	1	3	90	0.00	30.237 
14:40	76.0	76.0	78.0	47	54.3	0	2	90	0.00	30.237 
14:45	76.0	76.0	78.0	46	53.7	0	2	90	0.00	30.233 
14:50	76.0	76.0	78.1	49	55.4	0	2	90	0.00	30.233 
14:55	76.0	76.0	78.0	46	53.7	1	3	90	0.00	30.233 
15:00	76.0	76.0	78.0	44	52.5	1	3	90	0.00	30.228 
15:05	76.1	76.1	78.0	43	52.0	0	2	90	0.00	30.228 
15:10	76.3	76.3	78.0	43	52.1	0	1	90	0.00	30.228 
15:15	76.5	76.5	78.3	47	54.7	0	1	90	0.00	30.223 
15:20	76.7	76.7	78.3	46	54.3	0	1	90	0.00	30.223 
15:25	76.8	76.8	78.3	45	53.8	0	2	90	0.00	30.223 
15:30	76.7	76.7	78.2	43	52.5	1	3	90	0.00	30.216 
15:35	76.7	76.7	78.2	42	51.9	1	2	90	0.00	30.216 
15:40	76.7	76.7	78.3	46	54.3	0	3	90	0.00	30.216 
15:45	76.8	76.8	78.3	45	53.8	0	1	90	0.00	30.212 
15:50	76.8	76.8	78.3	43	52.6	0	1	90	0.00	30.212 
15:55	76.8	76.8	78.2	41	51.3	0	2	90	0.00	30.212 
16:00	76.8	76.8	78.1	39	49.9	0	2	90	0.00	30.206 
16:05	76.8	76.8	78.1	40	50.6	0	3	90	0.00	30.206 
16:10	76.7	76.7	78.1	40	50.5	1	3	90	0.00	30.206 
16:15	76.7	76.7	78.2	43	52.5	0	2	90	0.00	30.206 
16:20	76.5	76.5	78.0	40	50.4	0	2	90	0.00	30.206 
16:25	76.5	76.5	78.1	42	51.7	0	1	90	0.00	30.206 
16:30	76.5	76.5	78.1	41	51.0	1	2	90	0.00	30.201 
16:35	76.5	76.5	78.1	43	52.3	1	4	90	0.00	30.201 
16:40	76.5	76.5	78.1	41	51.0	0	1	90	0.00	30.201 
16:45	76.5	76.5	78.1	43	52.3	0	2	90	0.00	30.197 
16:50	76.5	76.5	78.0	40	50.4	0	4	90	0.00	30.197 
16:55	76.5	76.5	78.0	40	50.4	0	2	90	0.00	30.197 
17:00	76.3	76.3	78.0	42	51.5	0	2	90	0.00	30.196 
17:05	76.3	76.3	77.9	39	49.5	0	3	90	0.00	30.196 
17:10	76.3	76.3	78.0	41	50.8	0	1	90	0.00	30.196 
17:15	76.3	76.3	78.0	42	51.5	0	1	90	0.00	30.194 
17:20	76.3	76.3	77.9	40	50.2	0	2	90	0.00	30.194 
17:25	76.5	76.5	78.1	43	52.3	1	3	90	0.00	30.194 
17:30	76.3	76.3	78.1	45	53.4	0	2	90	0.00	30.192 
17:35	76.3	76.3	78.0	43	52.1	0	1	90	0.00	30.192 
17:40	76.1	76.1	78.0	44	52.6	0	1	90	0.00	30.192 
17:45	76.1	76.1	78.0	44	52.6	0	2	90	0.00	30.192 
17:50	76.1	76.1	78.0	43	52.0	0	4	90	0.00	30.192 
17:55	76.0	76.0	78.0	44	52.5	0	3	90	0.00	30.192 
18:00	76.0	76.0	78.0	46	53.7	0	2	90	0.00	30.189 
18:05	75.8	75.8	77.9	46	53.5	0	1	90	0.00	30.189 
18:10	75.6	75.6	77.8	46	53.3	0	2	90	0.00	30.189 
18:15	75.4	75.4	77.8	46	53.2	0	3	90	0.00	30.192 
18:20	75.3	75.3	77.7	47	53.7	0	2	90	0.00	30.192 
18:25	75.3	75.3	77.7	45	52.5	0	2	90	0.00	30.192 
18:30	75.1	75.1	77.7	46	52.9	0	2	90	0.00	30.191 
18:35	74.9	74.9	74.9	46	52.7	0	1	90	0.00	30.191 
18:40	74.7	74.7	74.7	46	52.5	0	1	90	0.00	30.191 
18:45	74.6	74.6	74.6	48	53.6	0	1	90	0.00	30.195 
18:50	74.2	74.2	74.2	48	53.2	0	2	90	0.00	30.195 
18:55	74.0	74.0	74.0	50	54.2	0	0	---	0.00	30.195 
19:00	73.7	73.7	73.7	51	54.4	0	1	90	0.00	30.199 
19:05	73.3	73.3	73.3	51	54.1	0	1	90	0.00	30.199 
19:10	73.0	73.0	73.0	52	54.3	0	1	90	0.00	30.199 
19:15	72.5	72.5	72.5	52	53.9	0	1	90	0.00	30.200 
19:20	72.1	72.1	72.1	52	53.5	0	1	90	0.00	30.200 
19:25	71.6	71.6	71.6	52	53.0	0	1	90	0.00	30.200 
19:30	71.3	71.3	71.3	53	53.3	0	1	90	0.00	30.203 
19:35	70.9	70.9	70.9	53	52.9	0	0	---	0.00	30.203 
19:40	70.4	70.4	70.4	54	52.9	0	0	---	0.00	30.203 
19:45	69.9	69.9	69.9	54	52.5	0	0	---	0.00	30.206 
19:50	69.3	69.3	69.3	56	52.9	0	0	---	0.00	30.206 
19:55	68.6	68.6	68.6	57	52.7	0	0	---	0.00	30.206 
20:00	67.9	67.9	67.9	58	52.6	0	0	---	0.00	30.208 
20:05	67.3	67.3	67.3	59	52.5	0	0	---	0.00	30.208 
20:10	66.8	66.8	66.8	61	52.9	0	0	---	0.00	30.208 
20:15	66.1	66.1	66.1	63	53.1	0	0	---	0.00	30.211 
20:20	65.5	65.5	65.5	65	53.4	0	0	---	0.00	30.211 
20:25	65.0	65.0	65.0	66	53.4	0	0	---	0.00	30.211 
20:30	64.5	64.5	64.5	67	53.3	0	0	---	0.00	30.214 
20:35	64.0	64.0	64.0	68	53.2	0	0	---	0.00	30.214 
20:40	63.7	63.7	63.7	69	53.3	0	0	---	0.00	30.214 
20:45	63.2	63.2	63.2	70	53.2	0	0	---	0.00	30.215 
20:50	62.9	62.9	62.9	71	53.3	0	0	---	0.00	30.215 
20:55	62.4	62.4	62.4	71	52.9	0	0	---	0.00	30.215 
21:00	62.1	62.1	62.1	72	53.0	0	0	---	0.00	30.225 
21:05	61.8	61.8	61.8	73	53.0	0	0	---	0.00	30.225 
21:10	61.6	61.6	61.6	74	53.2	0	0	---	0.00	30.225 
21:15	61.3	61.3	61.3	75	53.3	0	0	---	0.00	30.226 
21:20	61.0	61.0	61.0	75	53.0	0	0	---	0.00	30.226 
21:25	61.2	61.2	61.2	75	53.2	0	1	90	0.00	30.226 
21:30	62.1	62.1	62.1	72	53.0	0	4	90	0.00	30.227 
21:35	63.2	63.2	63.2	71	53.6	0	2	90	0.00	30.227 
21:40	64.0	64.0	64.0	70	54.0	0	2	90	0.00	30.227 
21:45	64.5	64.5	64.5	70	54.5	0	3	90	0.00	30.227 
21:50	64.7	64.7	64.7	70	54.7	0	2	90	0.00	30.227 
21:55	64.7	64.7	64.7	70	54.7	0	2	90	0.00	30.227 
22:00	64.7	64.7	64.7	70	54.7	0	2	90	0.00	30.227 
22:05	64.5	64.5	64.5	71	54.9	0	2	90	0.00	30.227 
22:10	64.3	64.3	64.3	72	55.1	0	3	90	0.00	30.227 
22:15	64.0	64.0	64.0	73	55.2	0	2	90	0.00	30.229 
22:20	63.9	63.9	63.9	74	55.4	0	2	90	0.00	30.229 
22:25	63.5	63.5	63.5	75	55.4	0	1	90	0.00	30.229 
22:30	63.4	63.4	63.4	75	55.3	0	1	90	0.00	30.234 
22:35	63.1	63.1	63.1	76	55.4	0	0	---	0.00	30.234 
22:40	62.7	62.7	62.7	77	55.4	0	0	---	0.00	30.234 
22:45	62.4	62.4	62.4	78	55.4	0	0	---	0.00	30.239 
22:50	62.1	62.1	62.1	79	55.5	0	0	---	0.00	30.239 
22:55	61.8	61.8	61.8	79	55.2	0	0	---	0.00	30.239 
23:00	61.3	61.3	61.3	80	55.1	0	0	---	0.00	30.241 
23:05	61.0	61.0	61.0	80	54.8	0	0	---	0.00	30.241 
23:10	60.7	60.7	60.7	81	54.8	0	0	---	0.00	30.241 
23:15	60.4	60.4	60.4	81	54.5	0	0	---	0.00	30.237 
23:20	60.1	60.1	60.1	81	54.2	0	0	---	0.00	30.237 
23:25	59.8	59.8	59.8	82	54.3	0	0	---	0.00	30.237 
23:30	59.5	59.5	59.5	83	54.3	0	0	---	0.00	30.236 
23:35	59.2	59.2	59.2	84	54.4	0	0	---	0.00	30.236 
23:40	58.9	58.9	58.9	85	54.4	0	0	---	0.00	30.236 
23:45	58.6	58.6	58.6	85	54.1	0	0	---	0.00	30.235 
23:50	58.3	58.3	58.3	86	54.1	0	0	---	0.00	30.235 
23:55	58.1	58.1	58.1	87	54.2	0	0	---	0.00	30.235 

CoCoRaHS
IN-AL-39
A2 Web Hosting
Creative Commons License
GoDaddy
search engine by freefind advanced

loaded 2018-11-16 10:36:09 • last modified 2010-11-18 10:43:29
Privacy PolicyDisclaimer
• wx.awcolley.com is powered by PmWiki v.2002016 •
• all content (unless otherwise noted) © 2018 A W Colley